Time;durP1;ratioP1;P1;durP2;ratioP2;P2;SDS_P1;SDS_P2;PMS_P1;PMS_P2;Temp;Humidity;BMP_temperature;BMP_pressure;BME280_temperature;BME280_humidity;BME280_pressure;Samples;Min_cycle;Max_cycle;Signal;HPM_P1;HPM_P2
2022/08/31 00:04:57;;;;;;;2.45;1.88;;;;;;;20.03;48.45;100699.72;5067960;28;20075;-62
2022/08/31 00:07:26;;;;;;;3.83;1.90;;;;;;;19.99;48.31;100701.66;5072260;28;20056;-62
2022/08/31 00:09:53;;;;;;;2.83;1.52;;;;;;;19.96;48.61;100701.59;5057372;28;20052;-63
2022/08/31 00:12:21;;;;;;;2.38;2.10;;;;;;;19.91;48.89;100708.34;5053301;28;20413;-62
2022/08/31 00:14:50;;;;;;;3.00;1.80;;;;;;;19.91;48.93;100710.34;5053283;28;20049;-63
2022/08/31 00:17:18;;;;;;;4.30;2.28;;;;;;;19.81;49.39;100706.13;5051921;28;20059;-62
2022/08/31 00:19:45;;;;;;;2.35;1.95;;;;;;;19.82;49.94;100704.91;5061185;28;20152;-63
2022/08/31 00:22:12;;;;;;;4.15;2.10;;;;;;;19.78;49.50;100707.69;5053186;28;20053;-63
2022/08/31 00:24:40;;;;;;;3.38;2.22;;;;;;;19.73;50.01;100696.66;5052195;28;20064;-63
2022/08/31 00:27:07;;;;;;;2.65;1.98;;;;;;;19.69;50.18;100701.38;5052787;28;20494;-64
2022/08/31 00:29:34;;;;;;;2.80;2.25;;;;;;;19.65;50.28;100690.03;5052671;28;20469;-63
2022/08/31 00:32:03;;;;;;;3.00;1.90;;;;;;;19.63;50.53;100691.56;5052014;28;20053;-62
2022/08/31 00:34:30;;;;;;;2.92;1.88;;;;;;;19.61;50.73;100688.28;5052647;28;20057;-62
2022/08/31 00:36:58;;;;;;;2.47;2.10;;;;;;;19.56;50.81;100702.72;5052917;28;20049;-63
2022/08/31 00:39:26;;;;;;;4.07;1.90;;;;;;;19.54;51.17;100700.25;5052551;28;20045;-64
2022/08/31 00:41:53;;;;;;;4.55;2.10;;;;;;;19.51;51.65;100711.47;5052718;28;20414;-64
2022/08/31 00:44:20;;;;;;;3.90;2.00;;;;;;;19.47;51.78;100702.94;5052587;28;20053;-62
2022/08/31 00:46:47;;;;;;;3.63;2.45;;;;;;;19.45;51.88;100703.31;5051993;28;20061;-63
2022/08/31 00:49:20;;;;;;;3.97;1.92;;;;;;;19.47;52.10;100706.59;5052964;28;20159;-64
2022/08/31 00:51:51;;;;;;;3.08;1.70;;;;;;;19.44;52.31;100707.34;5052973;28;20052;-64
2022/08/31 00:54:24;;;;;;;2.97;1.80;;;;;;;19.43;52.33;100705.69;5053155;28;20057;-64
2022/08/31 00:56:52;;;;;;;2.40;1.75;;;;;;;19.44;52.62;100704.50;5052649;28;20053;-64
2022/08/31 00:59:21;;;;;;;3.60;1.65;;;;;;;19.45;52.75;100708.16;5052723;28;20041;-64
2022/08/31 01:01:48;;;;;;;2.00;1.60;;;;;;;19.47;52.64;100711.41;5051672;28;20068;-64
2022/08/31 01:04:17;;;;;;;3.60;1.70;;;;;;;19.48;52.92;100711.03;5052853;28;20053;-64
2022/08/31 01:06:46;;;;;;;4.78;1.88;;;;;;;19.51;52.98;100705.81;5052265;28;20053;-64
2022/08/31 01:09:14;;;;;;;2.40;1.90;;;;;;;19.51;53.02;100711.47;5052475;28;20049;-64
2022/08/31 01:11:43;;;;;;;2.28;1.38;;;;;;;19.53;53.28;100703.47;5052118;28;20347;-64
2022/08/31 01:14:11;;;;;;;2.35;1.70;;;;;;;19.53;53.20;100704.28;5052531;28;20053;-64
2022/08/31 01:16:42;;;;;;;2.30;1.63;;;;;;;19.52;53.44;100713.13;5058330;28;20409;-63
2022/08/31 01:19:14;;;;;;;3.65;1.50;;;;;;;19.50;53.71;100710.66;5052367;28;20056;-63
2022/08/31 01:21:50;;;;;;;2.28;1.40;;;;;;;19.47;53.99;100715.06;5053661;28;20358;-64
2022/08/31 01:24:20;;;;;;;2.60;1.58;;;;;;;19.44;53.91;100718.63;5051749;28;20053;-64
2022/08/31 01:26:48;;;;;;;3.17;1.52;;;;;;;19.41;54.26;100718.53;5052109;28;20076;-63
2022/08/31 01:29:15;;;;;;;2.50;1.50;;;;;;;19.40;54.22;100714.91;5052065;28;20061;-63
2022/08/31 01:31:46;;;;;;;1.75;1.42;;;;;;;19.36;54.75;100713.16;5051860;28;20056;-64
2022/08/31 01:34:14;;;;;;;1.73;1.13;;;;;;;19.35;54.83;100717.19;5067199;28;20056;-63
2022/08/31 01:36:43;;;;;;;1.73;1.33;;;;;;;19.38;54.75;100720.09;5064940;28;20413;-64
2022/08/31 01:39:11;;;;;;;2.75;1.50;;;;;;;19.39;54.65;100737.88;5052310;28;20474;-64
2022/08/31 01:41:42;;;;;;;2.13;1.40;;;;;;;19.41;54.66;100727.84;5051783;28;20050;-64
2022/08/31 01:44:13;;;;;;;3.60;1.50;;;;;;;19.40;54.91;100729.03;5052343;28;20057;-63
2022/08/31 01:46:41;;;;;;;1.90;1.38;;;;;;;19.46;55.00;100732.38;5053704;28;20061;-64
2022/08/31 01:49:25;;;;;;;2.53;1.42;;;;;;;19.52;54.72;100727.25;5072173;28;20085;-64
2022/08/31 01:51:54;;;;;;;2.35;1.17;;;;;;;19.54;54.85;100722.06;5067620;28;20115;-65
2022/08/31 01:54:23;;;;;;;1.98;1.30;;;;;;;19.57;54.89;100732.59;5051859;28;20053;-63
2022/08/31 01:56:52;;;;;;;2.97;1.40;;;;;;;19.61;54.80;100727.84;5051486;28;20057;-64
2022/08/31 01:59:22;;;;;;;1.57;1.13;;;;;;;19.65;54.64;100731.59;5052243;28;20393;-64
2022/08/31 02:01:51;;;;;;;2.95;1.30;;;;;;;19.67;54.73;100729.19;5056104;28;20487;-63
2022/08/31 02:04:22;;;;;;;2.08;1.30;;;;;;;19.71;54.66;100727.31;5052231;28;20485;-64
2022/08/31 02:06:52;;;;;;;2.10;1.50;;;;;;;19.70;54.74;100728.50;5051543;28;20508;-64
2022/08/31 02:09:21;;;;;;;2.75;1.20;;;;;;;19.69;54.56;100732.47;5051975;28;20057;-64
2022/08/31 02:11:49;;;;;;;2.28;1.50;;;;;;;19.68;54.66;100725.22;5051059;28;20053;-64
2022/08/31 02:14:18;;;;;;;3.38;1.65;;;;;;;19.65;54.68;100728.75;5051311;28;20053;-64
2022/08/31 02:16:45;;;;;;;1.73;1.40;;;;;;;19.63;54.91;100726.31;5064026;28;20122;-64
2022/08/31 02:19:13;;;;;;;3.25;1.40;;;;;;;19.63;54.95;100725.47;5054247;28;20057;-64
2022/08/31 02:21:40;;;;;;;1.75;1.30;;;;;;;19.61;54.93;100725.03;5051489;28;20508;-63
2022/08/31 02:24:10;;;;;;;1.67;1.20;;;;;;;19.61;55.23;100727.84;5051261;28;20063;-59
2022/08/31 02:26:37;;;;;;;;;;;;;;;19.55;55.30;100726.50;5052249;28;20044;-59
2022/08/31 02:29:06;;;;;;;4.65;1.60;;;;;;;19.55;55.23;100723.69;5050767;28;19921;-60
2022/08/31 02:31:35;;;;;;;2.00;1.23;;;;;;;19.55;55.22;100733.00;5062040;28;20049;-60
2022/08/31 02:34:03;;;;;;;1.65;1.00;;;;;;;19.57;55.41;100732.59;5055066;28;20064;-60
2022/08/31 02:36:31;;;;;;;2.28;1.25;;;;;;;19.58;55.22;100722.97;5055117;28;20080;-60
2022/08/31 02:38:58;;;;;;;2.50;1.20;;;;;;;19.56;55.42;100726.16;5055157;28;20053;-60
2022/08/31 02:41:25;;;;;;;2.60;1.10;;;;;;;19.59;55.47;100728.25;5055196;28;20049;-60
2022/08/31 02:43:53;;;;;;;1.90;1.30;;;;;;;19.62;55.39;100730.31;5054539;28;20048;-60
2022/08/31 02:46:23;;;;;;;1.60;1.20;;;;;;;19.62;55.40;100729.50;5075100;28;20076;-60
2022/08/31 02:48:52;;;;;;;2.42;1.00;;;;;;;19.65;55.71;100734.41;5068794;28;20055;-62
2022/08/31 02:51:19;;;;;;;3.03;1.40;;;;;;;19.65;55.60;100723.09;5054767;28;20053;-59
2022/08/31 02:53:46;;;;;;;2.25;1.25;;;;;;;19.69;55.52;100735.31;5054749;28;20056;-61
2022/08/31 02:56:14;;;;;;;2.80;1.33;;;;;;;19.70;55.62;100737.00;5055188;28;20069;-61
2022/08/31 02:58:41;;;;;;;1.50;1.10;;;;;;;19.71;55.59;100729.31;5057283;28;20059;-59
2022/08/31 03:01:09;;;;;;;3.03;1.13;;;;;;;19.77;55.51;100731.47;5054526;28;20056;-59
2022/08/31 03:03:37;;;;;;;2.20;1.20;;;;;;;19.78;55.56;100727.47;5054316;28;20057;-59
2022/08/31 03:06:06;;;;;;;2.45;1.13;;;;;;;19.79;55.42;100729.09;5054570;28;20053;-59
2022/08/31 03:08:34;;;;;;;3.65;1.30;;;;;;;19.82;55.50;100719.06;5054534;28;20061;-59
2022/08/31 03:11:01;;;;;;;2.72;1.38;;;;;;;19.82;55.29;100722.72;5054123;28;20049;-60
2022/08/31 03:13:29;;;;;;;1.92;1.20;;;;;;;19.85;55.18;100718.31;5057422;28;20123;-60
2022/08/31 03:15:56;;;;;;;3.15;1.58;;;;;;;19.84;55.23;100714.69;5058106;28;20048;-59
2022/08/31 03:18:23;;;;;;;2.25;1.27;;;;;;;19.84;55.38;100713.84;5054343;28;20057;-59
2022/08/31 03:20:51;;;;;;;1.92;1.30;;;;;;;19.85;55.37;100719.13;5053790;28;20045;-59
2022/08/31 03:23:19;;;;;;;2.58;1.27;;;;;;;19.86;55.14;100714.28;5054204;28;20049;-59
2022/08/31 03:25:47;;;;;;;3.35;1.58;;;;;;;19.78;55.51;100719.00;5054071;28;20057;-59
2022/08/31 03:28:15;;;;;;;2.40;1.40;;;;;;;19.77;55.72;100717.34;5053440;28;20064;-59
2022/08/31 03:30:42;;;;;;;2.75;1.25;;;;;;;19.80;55.45;100718.59;5053757;28;20049;-59
2022/08/31 03:33:09;;;;;;;3.05;1.30;;;;;;;19.80;55.62;100719.44;5053735;28;20071;-59
2022/08/31 03:35:42;;;;;;;3.45;1.30;;;;;;;19.81;55.44;100723.91;5053402;28;20052;-59
2022/08/31 03:38:09;;;;;;;3.70;1.48;;;;;;;19.81;55.40;100723.91;5053854;28;20052;-59
2022/08/31 03:40:38;;;;;;;2.58;1.20;;;;;;;19.81;55.55;100725.91;5053462;28;20055;-60
2022/08/31 03:43:09;;;;;;;4.15;1.88;;;;;;;19.82;55.34;100717.06;5063196;28;20400;-59
2022/08/31 03:45:37;;;;;;;2.25;1.40;;;;;;;19.82;55.54;100719.91;5068583;28;20052;-59
2022/08/31 03:48:06;;;;;;;2.55;1.50;;;;;;;19.84;55.58;100719.50;5053993;28;20477;-60
2022/08/31 03:50:33;;;;;;;2.35;1.50;;;;;;;19.86;55.46;100722.78;5053060;28;20053;-59
2022/08/31 03:53:02;;;;;;;2.92;1.30;;;;;;;19.83;55.40;100729.19;5053752;28;20056;-59
2022/08/31 03:55:30;;;;;;;;;;;;;;;19.78;55.38;100727.47;5054169;28;20053;-61
2022/08/31 03:57:58;;;;;;;2.75;1.50;;;;;;;19.77;55.40;100722.19;5052717;28;19920;-59
2022/08/31 04:00:26;;;;;;;2.05;1.15;;;;;;;19.75;55.54;100719.72;5053000;28;20053;-60
2022/08/31 04:02:56;;;;;;;2.17;1.30;;;;;;;19.74;55.55;100726.59;5053634;28;20045;-60
2022/08/31 04:05:23;;;;;;;1.92;1.60;;;;;;;19.70;55.65;100731.34;5053651;28;20063;-59
2022/08/31 04:07:50;;;;;;;3.17;1.40;;;;;;;19.70;55.48;100736.13;5056929;28;20051;-59
2022/08/31 04:10:18;;;;;;;2.55;1.25;;;;;;;19.67;55.64;100737.69;5072066;28;20048;-61
2022/08/31 04:12:45;;;;;;;3.17;1.58;;;;;;;19.65;55.68;100725.94;5068288;28;20057;-60
2022/08/31 04:15:14;;;;;;;2.88;1.20;;;;;;;19.60;55.82;100723.41;5073339;28;20060;-60
2022/08/31 04:17:43;;;;;;;;;;;;;;;19.53;56.12;100726.06;5059723;28;20065;-61
2022/08/31 04:20:11;;;;;;;1.65;1.25;;;;;;;19.53;55.95;100721.25;5053196;28;19927;-61
2022/08/31 04:22:38;;;;;;;2.20;1.67;;;;;;;19.51;56.29;100722.78;5052602;28;20053;-60
2022/08/31 04:25:09;;;;;;;2.30;1.30;;;;;;;19.51;56.24;100720.78;5052980;28;20061;-60
2022/08/31 04:27:36;;;;;;;3.72;1.50;;;;;;;19.52;55.96;100725.25;5060153;28;20493;-60
2022/08/31 04:30:06;;;;;;;2.55;1.70;;;;;;;19.52;56.21;100730.09;5052889;28;20405;-60
2022/08/31 04:32:35;;;;;;;2.22;1.58;;;;;;;19.51;56.16;100728.44;5049994;28;20056;-60
2022/08/31 04:35:03;;;;;;;2.00;1.50;;;;;;;19.45;56.32;100742.84;5057524;28;20056;-61
2022/08/31 04:37:30;;;;;;;4.75;1.80;;;;;;;19.41;56.42;100729.84;5066307;28;20049;-61
2022/08/31 04:40:00;;;;;;;2.20;1.45;;;;;;;19.42;56.61;100737.13;5052356;28;20053;-60
2022/08/31 04:42:28;;;;;;;3.85;1.80;;;;;;;19.39;56.57;100733.03;5052729;28;20500;-60
2022/08/31 04:44:56;;;;;;;2.70;1.30;;;;;;;19.37;56.68;100729.75;5051273;28;20535;-60
2022/08/31 04:47:23;;;;;;;2.28;1.40;;;;;;;19.37;56.67;100734.59;5048974;28;20044;-60
2022/08/31 04:49:52;;;;;;;2.10;1.30;;;;;;;19.35;56.96;100732.13;5046895;28;20049;-60
2022/08/31 04:52:19;;;;;;;2.67;1.65;;;;;;;19.32;56.98;100734.84;5050750;28;20470;-60
2022/08/31 04:54:46;;;;;;;2.63;1.40;;;;;;;19.31;56.92;100733.25;5049318;28;20056;-59
2022/08/31 04:57:14;;;;;;;3.35;1.67;;;;;;;19.31;56.98;100742.53;5051150;28;20049;-60
2022/08/31 04:59:41;;;;;;;4.65;1.77;;;;;;;19.30;57.04;100735.25;5050435;28;20060;-60
2022/08/31 05:02:08;;;;;;;3.47;1.63;;;;;;;19.33;57.23;100742.97;5049841;28;20060;-61
2022/08/31 05:04:36;;;;;;;3.67;1.60;;;;;;;19.33;57.16;100740.16;5050359;28;20052;-61
2022/08/31 05:07:04;;;;;;;3.80;1.73;;;;;;;19.34;57.08;100736.16;5050686;28;20048;-59
2022/08/31 05:09:32;;;;;;;3.40;1.92;;;;;;;19.36;57.02;100742.25;5050640;28;20053;-60
2022/08/31 05:11:59;;;;;;;4.38;1.58;;;;;;;19.36;57.04;100747.91;5049592;28;20052;-60
2022/08/31 05:14:26;;;;;;;3.47;1.60;;;;;;;19.36;57.13;100750.72;5053153;28;20053;-60
2022/08/31 05:16:53;;;;;;;8.32;1.88;;;;;;;19.38;56.99;100750.34;5049502;28;20493;-59
2022/08/31 05:19:21;;;;;;;2.67;1.60;;;;;;;19.37;56.98;100749.53;5051824;28;20402;-60
2022/08/31 05:21:48;;;;;;;4.22;1.50;;;;;;;19.29;56.88;100747.72;5054778;28;20045;-60
2022/08/31 05:24:20;;;;;;;3.20;1.63;;;;;;;19.32;57.00;100747.00;5051478;28;20136;-59
2022/08/31 05:26:49;;;;;;;3.08;1.55;;;;;;;19.29;57.13;100742.06;5050312;28;20060;-59
2022/08/31 05:29:19;;;;;;;2.30;1.42;;;;;;;19.31;57.04;100751.00;5051819;28;20045;-59
2022/08/31 05:31:46;;;;;;;2.88;1.80;;;;;;;19.26;57.19;100742.81;5051457;28;20041;-59
2022/08/31 05:34:14;;;;;;;2.58;1.50;;;;;;;19.24;57.30;100748.81;5057379;28;20049;-60
2022/08/31 05:36:43;;;;;;;2.13;1.30;;;;;;;19.23;57.26;100754.84;5051729;28;20057;-60
2022/08/31 05:39:12;;;;;;;3.20;1.80;;;;;;;19.23;57.36;100754.84;5059528;28;20504;-59
2022/08/31 05:41:43;;;;;;;2.63;1.50;;;;;;;19.19;57.47;100751.94;5051736;28;20471;-59
2022/08/31 05:44:11;;;;;;;2.55;1.70;;;;;;;19.14;57.75;100752.22;5058816;28;20416;-59
2022/08/31 05:46:39;;;;;;;3.45;1.73;;;;;;;19.15;57.52;100753.03;5051554;28;20049;-61
2022/08/31 05:49:07;;;;;;;3.38;1.85;;;;;;;19.16;57.71;100751.84;5067821;28;20056;-60
2022/08/31 05:51:35;;;;;;;10.63;2.30;;;;;;;19.15;57.87;100753.03;5051115;28;20049;-60
2022/08/31 05:54:03;;;;;;;2.63;1.60;;;;;;;19.16;57.89;100754.66;5050967;28;21084;-59
2022/08/31 05:56:30;;;;;;;5.22;2.30;;;;;;;19.19;57.77;100751.09;5051992;28;20056;-59
2022/08/31 05:58:59;;;;;;;3.03;1.77;;;;;;;19.21;57.76;100757.19;5051625;28;20053;-59
2022/08/31 06:01:29;;;;;;;2.85;1.70;;;;;;;19.25;57.64;100750.44;5050152;28;20060;-60
2022/08/31 06:03:58;;;;;;;7.35;2.17;;;;;;;19.29;57.92;100750.53;5070340;28;20497;-60
2022/08/31 06:06:26;;;;;;;4.20;1.90;;;;;;;19.35;57.50;100753.91;5037462;28;20512;-61
2022/08/31 06:08:54;;;;;;;7.28;1.98;;;;;;;19.37;57.60;100762.84;5050781;28;20390;-60
2022/08/31 06:11:24;;;;;;;2.88;1.80;;;;;;;19.40;57.40;100762.94;5050694;28;20516;-59
2022/08/31 06:13:53;;;;;;;2.22;1.67;;;;;;;19.45;57.38;100751.34;5051299;28;20128;-59
2022/08/31 06:16:22;;;;;;;3.22;1.88;;;;;;;19.47;57.34;100751.78;5047331;28;20681;-60
2022/08/31 06:18:50;;;;;;;;;;;;;;;19.38;57.59;100756.84;5050651;28;20441;-60
2022/08/31 06:21:19;;;;;;;3.47;1.80;;;;;;;19.43;57.50;100759.34;5051368;28;19928;-60
2022/08/31 06:23:48;;;;;;;5.68;2.20;;;;;;;19.45;57.53;100754.16;5049090;28;20056;-59
2022/08/31 06:26:18;;;;;;;2.80;1.70;;;;;;;19.54;57.31;100755.97;5050264;28;20626;-59
2022/08/31 06:28:48;;;;;;;4.50;2.20;;;;;;;19.60;57.08;100765.78;5049757;28;20073;-61
2022/08/31 06:31:18;;;;;;;3.83;1.90;;;;;;;19.72;56.92;100757.22;5051506;28;20061;-60
2022/08/31 06:33:47;;;;;;;4.50;2.03;;;;;;;19.85;56.70;100764.38;5045766;28;20091;-59
2022/08/31 06:36:17;;;;;;;5.45;2.38;;;;;;;19.98;56.40;100767.06;5045436;28;20064;-60
2022/08/31 06:38:45;;;;;;;4.22;1.83;;;;;;;20.17;55.88;100767.03;5046005;28;20057;-60
2022/08/31 06:41:15;;;;;;;2.45;1.73;;;;;;;20.31;55.50;100772.19;5046128;28;20045;-59
2022/08/31 06:43:42;;;;;;;7.05;2.47;;;;;;;20.59;54.68;100771.13;5046293;28;20413;-60
2022/08/31 06:46:10;;;;;;;2.80;1.90;;;;;;;20.76;54.11;100776.28;5047118;28;20053;-60
2022/08/31 06:48:38;;;;;;;3.17;1.83;;;;;;;20.96;53.83;100768.56;5047045;28;20663;-60
2022/08/31 06:51:08;;;;;;;4.88;2.08;;;;;;;21.15;53.28;100778.19;5048919;28;20044;-60
2022/08/31 06:53:39;;;;;;;2.85;1.70;;;;;;;21.30;52.65;100774.38;5048841;28;20477;-59
2022/08/31 06:56:07;;;;;;;3.88;2.20;;;;;;;21.45;52.15;100784.75;5049373;28;20049;-59
2022/08/31 06:58:35;;;;;;;4.50;1.95;;;;;;;21.68;51.53;100781.06;5050335;28;20473;-59
2022/08/31 07:01:06;;;;;;;3.97;2.03;;;;;;;21.84;51.26;100783.72;5050712;28;20504;-59
2022/08/31 07:03:39;;;;;;;2.33;1.92;;;;;;;22.03;50.78;100782.75;5051976;28;20057;-59
2022/08/31 07:06:13;;;;;;;2.60;1.80;;;;;;;22.29;50.57;100784.72;5044570;28;20052;-59
2022/08/31 07:08:41;;;;;;;2.65;1.85;;;;;;;22.57;49.49;100789.09;5052825;28;20387;-59
2022/08/31 07:11:13;;;;;;;5.32;2.20;;;;;;;22.78;48.92;100792.13;5053265;28;20053;-59
2022/08/31 07:13:41;;;;;;;3.75;1.80;;;;;;;22.83;48.96;100800.31;5054809;28;20052;-59
2022/08/31 07:16:10;;;;;;;2.58;1.98;;;;;;;23.03;47.98;100803.78;5052085;28;20055;-59
2022/08/31 07:18:38;;;;;;;3.20;2.20;;;;;;;23.13;47.82;100798.59;5051022;28;20061;-60
2022/08/31 07:21:10;;;;;;;4.28;2.15;;;;;;;22.81;48.20;100802.72;5051898;28;20060;-61
2022/08/31 07:23:38;;;;;;;3.90;1.90;;;;;;;22.91;48.39;100812.59;5048141;28;20049;-60
2022/08/31 07:26:07;;;;;;;3.40;2.40;;;;;;;22.84;48.45;100803.97;5051558;28;20168;-59
2022/08/31 07:28:34;;;;;;;3.25;2.30;;;;;;;22.81;48.48;100813.28;5051136;28;20057;-60
2022/08/31 07:31:04;;;;;;;2.85;2.10;;;;;;;22.70;48.81;100805.47;5051733;28;20057;-60
2022/08/31 07:33:36;;;;;;;3.10;2.00;;;;;;;22.75;48.64;100809.97;5051084;28;20405;-61
2022/08/31 07:36:11;;;;;;;3.83;2.13;;;;;;;22.69;48.78;100812.34;5044929;28;20053;-60
2022/08/31 07:44:10;;;;;;;3.65;2.30;;;;;;;22.90;47.99;100806.06;5053156;28;20591;-59
2022/08/31 07:46:39;;;;;;;3.75;1.95;;;;;;;23.03;48.42;100806.63;5050427;28;20056;-60
2022/08/31 07:49:12;;;;;;;4.35;2.10;;;;;;;23.19;47.99;100811.25;5050080;28;20079;-59
2022/08/31 07:51:49;;;;;;;3.85;2.60;;;;;;;23.22;47.48;100811.25;5050244;28;20052;-60
2022/08/31 07:54:19;;;;;;;2.90;2.05;;;;;;;23.23;48.05;100821.41;5049023;28;20497;-60
2022/08/31 07:56:49;;;;;;;4.80;2.33;;;;;;;23.35;47.63;100813.78;5042713;28;20049;-59
2022/08/31 07:59:19;;;;;;;4.32;2.58;;;;;;;23.42;47.00;100814.66;5050946;28;20053;-60
2022/08/31 08:01:47;;;;;;;4.93;2.10;;;;;;;23.35;47.23;100820.31;5050727;28;20049;-61
2022/08/31 08:04:24;;;;;;;3.10;2.20;;;;;;;23.40;47.45;100816.28;5050366;28;20755;-59
2022/08/31 08:06:55;;;;;;;3.00;1.88;;;;;;;23.46;47.33;100823.22;5050003;28;20060;-61
2022/08/31 08:09:22;;;;;;;3.15;1.95;;;;;;;23.54;46.92;100821.25;5042458;28;20056;-59
2022/08/31 08:11:53;;;;;;;3.88;2.30;;;;;;;23.41;47.17;100826.44;5050501;28;20049;-60
2022/08/31 08:14:21;;;;;;;3.80;2.08;;;;;;;23.46;47.28;100824.03;5051078;28;20052;-60
2022/08/31 08:16:49;;;;;;;2.75;2.17;;;;;;;23.47;47.40;100827.69;5049125;28;20053;-60
2022/08/31 08:19:16;;;;;;;6.28;2.35;;;;;;;23.58;47.23;100833.47;5050324;28;20045;-59
2022/08/31 08:21:44;;;;;;;3.97;2.30;;;;;;;23.68;46.89;100835.56;5047877;28;20057;-59
2022/08/31 08:24:15;;;;;;;4.93;2.58;;;;;;;23.76;46.71;100822.22;5053920;28;20048;-60
2022/08/31 08:26:43;;;;;;;4.15;2.40;;;;;;;24.04;46.31;100827.28;5049727;28;20053;-60
2022/08/31 08:29:10;;;;;;;3.90;2.20;;;;;;;24.30;45.71;100829.84;5047729;28;20056;-60
2022/08/31 08:31:38;;;;;;;4.05;2.28;;;;;;;24.43;45.03;100833.16;5050363;28;20060;-61
2022/08/31 08:34:06;;;;;;;4.30;2.42;;;;;;;24.41;44.68;100818.50;5049810;28;20052;-60
2022/08/31 08:36:35;;;;;;;3.88;2.30;;;;;;;24.56;44.74;100822.25;5052184;28;20051;-59
2022/08/31 08:39:05;;;;;;;2.53;1.95;;;;;;;25.16;44.15;100823.59;5052449;28;20056;-59
2022/08/31 08:41:37;;;;;;;5.10;2.45;;;;;;;25.42;43.60;100830.13;5049316;28;20382;-59
2022/08/31 08:44:10;;;;;;;4.45;2.22;;;;;;;25.57;42.78;100830.94;5049609;28;20056;-59
2022/08/31 08:46:46;;;;;;;5.80;2.38;;;;;;;25.61;42.26;100831.75;5049520;28;20509;-60
2022/08/31 08:49:20;;;;;;;3.33;2.22;;;;;;;25.88;42.13;100827.22;5049269;28;20052;-59
2022/08/31 08:51:51;;;;;;;3.45;1.90;;;;;;;26.07;41.69;100828.81;5050048;28;20056;-60
2022/08/31 08:54:28;;;;;;;7.05;2.42;;;;;;;26.22;41.39;100829.59;5049085;28;20049;-60
2022/08/31 08:56:58;;;;;;;5.07;2.72;;;;;;;26.49;40.92;100838.44;5052231;28;20052;-59
2022/08/31 08:59:27;;;;;;;5.20;2.55;;;;;;;26.72;40.23;100837.94;5048964;28;20410;-59
2022/08/31 09:02:00;;;;;;;;;;;;;;;26.72;40.24;100843.66;5047025;28;20061;-60
2022/08/31 09:04:47;;;;;;;3.58;2.25;;;;;;;26.62;40.04;100835.16;5050100;28;19928;-59
2022/08/31 09:07:30;;;;;;;5.57;2.70;;;;;;;26.78;40.23;100831.81;5049590;28;20049;-61
2022/08/31 09:10:09;;;;;;;3.83;2.38;;;;;;;26.90;39.80;100822.75;5051792;28;20056;-61
2022/08/31 09:12:45;;;;;;;3.55;2.20;;;;;;;27.05;39.53;100823.47;5054888;28;20060;-59
2022/08/31 09:15:34;;;;;;;4.68;2.33;;;;;;;27.37;38.85;100831.81;5048035;28;20064;-60
2022/08/31 09:18:15;;;;;;;4.38;2.67;;;;;;;27.91;38.03;100831.34;5045021;28;20053;-60
2022/08/31 09:20:42;;;;;;;5.43;2.70;;;;;;;28.18;37.40;100837.16;5045137;28;20073;-60
2022/08/31 09:23:09;;;;;;;4.28;2.50;;;;;;;28.52;37.23;100824.91;5046730;28;20470;-60
2022/08/31 09:25:51;;;;;;;4.93;2.38;;;;;;;28.82;36.50;100828.97;5049456;28;20057;-59
2022/08/31 09:28:33;;;;;;;3.85;2.10;;;;;;;29.50;35.84;100831.63;5046181;28;20061;-60
2022/08/31 09:31:01;;;;;;;5.63;2.70;;;;;;;30.29;34.21;100823.59;5048174;28;20052;-60
2022/08/31 09:33:32;;;;;;;2.70;2.30;;;;;;;31.19;33.05;100812.94;5049143;28;20056;-60
2022/08/31 09:36:14;;;;;;;4.38;2.50;;;;;;;31.79;31.87;100812.63;5051673;28;20064;-60
2022/08/31 09:38:44;;;;;;;4.50;2.58;;;;;;;33.55;29.22;100805.97;5050163;28;20045;-60
2022/08/31 09:41:29;;;;;;;4.95;2.08;;;;;;;35.26;27.70;100805.69;5050279;28;20049;-60
2022/08/31 09:44:20;;;;;;;3.05;2.55;;;;;;;36.86;24.81;100803.88;5053692;28;20045;-60
2022/08/31 09:46:49;;;;;;;5.25;3.00;;;;;;;37.78;23.81;100800.44;5053491;28;20044;-58
2022/08/31 09:49:20;;;;;;;3.30;2.60;;;;;;;39.12;22.20;100783.00;5055248;28;20048;-61
2022/08/31 09:51:48;;;;;;;2.63;2.35;;;;;;;40.25;21.16;100785.22;5053972;28;20413;-60
2022/08/31 09:57:07;;;;;;;3.70;2.10;;;;;;;40.97;20.15;100789.31;5061588;28;20079;-60
2022/08/31 09:59:40;;;;;;;5.47;2.80;;;;;;;40.49;20.75;100787.06;5050792;28;20061;-60
2022/08/31 10:02:11;;;;;;;3.92;2.50;;;;;;;42.02;18.95;100794.66;5053386;28;20405;-59
2022/08/31 10:04:51;;;;;;;7.28;2.35;;;;;;;42.96;17.90;100784.34;5052484;28;20493;-60
2022/08/31 10:07:31;;;;;;;4.35;1.90;;;;;;;42.97;17.81;100779.31;5051938;28;20052;-59
2022/08/31 10:10:02;;;;;;;4.97;1.90;;;;;;;43.63;17.59;100781.78;5051109;28;20505;-60
2022/08/31 10:12:41;;;;;;;5.35;2.10;;;;;;;44.38;16.60;100785.34;5051557;28;20048;-60
2022/08/31 10:15:17;;;;;;;2.80;2.50;;;;;;;44.87;16.09;100790.59;5048664;28;20068;-59
2022/08/31 10:17:56;;;;;;;5.70;2.30;;;;;;;43.88;16.93;100786.47;5050363;28;20535;-60
2022/08/31 10:20:29;;;;;;;4.47;2.90;;;;;;;44.76;16.11;100779.72;5053185;28;20052;-59
2022/08/31 10:23:07;;;;;;;4.50;2.30;;;;;;;43.87;16.89;100781.97;5051086;28;20367;-60
2022/08/31 10:25:45;;;;;;;4.05;2.28;;;;;;;44.62;15.98;100786.78;5053132;28;20044;-60
2022/08/31 10:28:17;;;;;;;3.97;2.65;;;;;;;43.83;16.76;100781.44;5051948;28;20433;-60
2022/08/31 10:30:53;;;;;;;3.38;1.98;;;;;;;44.09;17.02;100792.00;5052643;28;20518;-60
2022/08/31 10:33:24;;;;;;;5.15;2.70;;;;;;;43.34;17.15;100778.94;5055484;28;20048;-60
2022/08/31 10:35:54;;;;;;;5.00;2.25;;;;;;;42.98;17.24;100783.81;5050944;28;20060;-59
2022/08/31 10:38:30;;;;;;;5.00;2.22;;;;;;;41.56;18.75;100785.69;5050995;28;20052;-60
2022/08/31 10:41:06;;;;;;;5.13;2.10;;;;;;;41.48;18.60;100790.44;5049192;28;20401;-59
2022/08/31 10:43:43;;;;;;;4.22;2.45;;;;;;;40.98;19.31;100785.88;5049699;28;20402;-59
2022/08/31 10:46:13;;;;;;;3.80;2.45;;;;;;;40.94;19.09;100793.28;5051788;28;20071;-60
2022/08/31 10:48:45;;;;;;;3.72;2.20;;;;;;;40.99;19.55;100795.44;5047645;28;20050;-59
2022/08/31 10:51:21;;;;;;;5.28;2.50;;;;;;;41.25;18.92;100785.81;5051756;28;20053;-59
2022/08/31 10:54:01;;;;;;;3.22;1.83;;;;;;;40.67;19.33;100798.38;5049012;28;20409;-59
2022/08/31 10:56:40;;;;;;;3.05;2.25;;;;;;;39.66;20.37;100785.59;5049851;28;20049;-60
2022/08/31 10:59:20;;;;;;;3.58;1.88;;;;;;;38.88;21.22;100786.06;5045690;28;20057;-60
2022/08/31 11:01:58;;;;;;;5.10;1.98;;;;;;;38.32;21.80;100786.69;5049835;28;20045;-59
2022/08/31 11:04:40;;;;;;;;;;;;;;;37.88;22.42;100781.59;5049871;28;20386;-59
2022/08/31 11:07:17;;;;;;;5.03;2.33;;;;;;;37.90;22.40;100778.97;5044700;28;19921;-59
2022/08/31 11:09:56;;;;;;;2.80;2.42;;;;;;;38.21;22.04;100780.66;5046938;28;20044;-59
2022/08/31 11:12:28;;;;;;;3.38;2.00;;;;;;;38.32;22.16;100780.84;5050335;28;20394;-59
2022/08/31 11:15:12;;;;;;;3.47;1.92;;;;;;;37.81;22.67;100776.16;5051250;28;20049;-60
2022/08/31 11:18:03;;;;;;;3.53;2.00;;;;;;;37.92;22.57;100782.19;5050213;28;20056;-59
2022/08/31 11:20:48;;;;;;;2.13;1.83;;;;;;;37.55;22.79;100785.41;5045017;28;20049;-59
2022/08/31 11:23:30;;;;;;;5.03;2.35;;;;;;;37.15;23.06;100785.84;5048705;28;20061;-59
2022/08/31 11:26:39;;;;;;;5.68;2.45;;;;;;;36.84;23.81;100789.03;5050380;28;20048;-60
2022/08/31 11:29:17;;;;;;;3.80;2.13;;;;;;;38.00;22.62;100779.72;4990669;28;20066;-59
2022/08/31 11:31:45;;;;;;;3.28;2.10;;;;;;;39.34;21.22;100783.31;5007801;28;20050;-59
2022/08/31 11:34:15;;;;;;;;;;;;;;;39.44;20.80;100783.19;5023976;28;20056;-59
2022/08/31 11:36:49;;;;;;;7.13;2.30;;;;;;;38.65;21.42;100784.91;5047937;28;19921;-59
2022/08/31 11:39:25;;;;;;;4.30;2.30;;;;;;;38.46;21.76;100778.47;5051519;28;20060;-59
2022/08/31 11:41:53;;;;;;;5.45;2.20;;;;;;;40.26;20.01;100768.50;5050783;28;20053;-59
2022/08/31 11:45:00;;;;;;;3.75;2.40;;;;;;;40.83;19.37;100770.63;5047910;28;20053;-59
2022/08/31 11:47:42;;;;;;;4.18;2.10;;;;;;;39.57;19.90;100772.00;5039905;28;20056;-59
2022/08/31 11:50:27;;;;;;;4.32;2.10;;;;;;;39.47;20.64;100776.34;5047570;28;20044;-59
2022/08/31 11:52:56;;;;;;;10.63;2.50;;;;;;;39.12;20.72;100769.25;5046388;28;20057;-59
2022/08/31 11:55:27;;;;;;;4.18;2.00;;;;;;;38.72;21.17;100773.63;5046387;28;20049;-59